Flight Track Log - Related Links

Times and Time Zones

All times are in EDT time to prevent confusion due to time zone crossing. See the N789EX flight status page for this flight to view local times or setup timezone preferences in your user account.


Time Position Orientation Groundspeed Altitude Reporting Facility
EDT Latitude Longitude Course Direction KTS MPH feet Rate Location/Type
Fri 03:05:18 PM 47.5107 -122.2850 146° Southeast 199 229 1,300  Level FlightAware ADS-B
Fri 03:05:33 PM 47.4988 -122.2720 142° Southeast 231 266 1,700 2,000 Climbing FlightAware ADS-B
Fri 03:05:48 PM 47.4847 -122.2560 143° Southeast 250 288 2,300 3,290 Climbing FlightAware ADS-B
Fri 03:06:04 PM 47.4700 -122.2400 143° Southeast 258 297 3,400 4,250 Climbing FlightAware ADS-B
Fri 03:06:12 PM 47.4627 -122.2320 142° Southeast 260 299 4,000 4,500 Climbing FlightAware ADS-B
Fri 03:06:16 PM 47.4592 -122.2270 138° Southeast 261 300 4,300 4,286 Climbing FlightAware ADS-B
Fri 03:06:19 PM 47.4567 -122.2230 130° Southeast 262 302 4,500 4,286 Climbing FlightAware ADS-B
Fri 03:06:23 PM 47.4541 -122.2170 123° Southeast 264 304 4,800 5,143 Climbing FlightAware ADS-B
Fri 03:06:26 PM 47.4519 -122.2110 116° Southeast 267 307 5,100 4,286 Climbing FlightAware ADS-B
Fri 03:06:30 PM 47.4502 -122.2060 111° Southeast 269 310 5,300 3,600 Climbing FlightAware ADS-B
Fri 03:06:31 PM 47.4526 -122.2136 108° East 270 311 5,400 4,500 Climbing FlightAware ADS-B
Fri 03:06:34 PM 47.4488 -122.1990 105° East 270 311 5,600 5,000 Climbing FlightAware ADS-B
Fri 03:06:37 PM 47.4479 -122.1920 101° East 273 314 5,900 4,500 Climbing FlightAware ADS-B
Fri 03:06:42 PM 47.4474 -122.1840 95° East 275 316 6,200 3,857 Climbing FlightAware ADS-B
Fri 03:06:51 PM 47.4468 -122.1698 94° East 279 321 6,800 4,000 Climbing FlightAware ADS-B
Fri 03:06:57 PM 47.4462 -122.1550 93° East 280 322 7,200 4,000 Climbing FlightAware ADS-B
Fri 03:07:12 PM 47.4452 -122.1260 93° East 284 327 8,200 4,154 Climbing FlightAware ADS-B
Fri 03:07:23 PM 47.4445 -122.1038 93° East 289 333 9,000 4,000 Climbing FlightAware ADS-B
Fri 03:07:27 PM 47.4442 -122.0960 93° East 290 334 9,200 3,257 Climbing FlightAware ADS-B
Fri 03:07:58 PM 47.4425 -122.0340 92° East 312 359 10,900 3,000 Climbing FlightAware ADS-B
Fri 03:08:03 PM 47.4425 -122.0337 93° East 321 369 11,000 1,400 Climbing FlightAware ADS-B
Fri 03:08:28 PM 47.4400 -121.9640 93° East 367 422 11,600 1,273 Climbing FlightAware ADS-B
Fri 03:08:36 PM 47.4394 -121.9478 94° East 381 438 11,700 1,161 Climbing FlightAware ADS-B
Fri 03:08:59 PM 47.4365 -121.8820 94° East 415 478 12,200 2,830 Climbing FlightAware ADS-B
Fri 03:09:29 PM 47.4326 -121.7960 94° East 416 479 14,200 4,528 Climbing FlightAware ADS-B
Fri 03:09:52 PM 47.4301 -121.7408 94° East 404 465 16,200 4,800 Climbing FlightAware ADS-B
Fri 03:09:59 PM 47.4290 -121.7120 93° East 404 465 16,600 1,371 Climbing FlightAware ADS-B
Fri 03:10:27 PM 47.4275 -121.6329 91° East 434 499 17,000 828 Climbing FlightAware ADS-B
Fri 03:10:28 PM 47.4274 -121.6280 91° East 435 501 17,000  Level FlightAware ADS-B
Fri 03:10:59 PM 47.4269 -121.5370 91° East 441 507 17,000  Level FlightAware ADS-B
Fri 03:11:00 PM 47.4270 -121.5435 91° East 441 507 17,000 -200 Level FlightAware ADS-B
Fri 03:11:29 PM 47.4258 -121.4470 91° East 436 502 16,900  Descending FlightAware ADS-B
Fri 03:11:45 PM 47.4253 -121.4098 91° East 438 504 17,000 200 Climbing FlightAware ADS-B
Fri 03:11:59 PM 47.4246 -121.3570 91° East 436 502 17,000  Level FlightAware ADS-B
Fri 03:12:24 PM 47.4234 -121.2849 91° East 437 503 17,000  Level FlightAware ADS-B
Fri 03:12:29 PM 47.4230 -121.2680 92° East 437 503 17,000  Level FlightAware ADS-B
Fri 03:12:54 PM 47.4223 -121.2341 92° East 448 516 17,000  Level FlightAware ADS-B
Fri 03:12:59 PM 47.4212 -121.1760 92° East 449 517 17,000 167 Level FlightAware ADS-B
Fri 03:13:30 PM 47.4193 -121.0840 92° East 448 516 17,100 162 Climbing FlightAware ADS-B
Fri 03:13:36 PM 47.4189 -121.0642 92° East 449 517 17,100  Level FlightAware ADS-B
Fri 03:14:00 PM 47.4174 -120.9910 92° East 449 517 17,100  Level FlightAware ADS-B
Fri 03:14:06 PM 47.4171 -120.9754 92° East 450 518 17,100  Level FlightAware ADS-B
Fri 03:14:30 PM 47.4157 -120.8990 92° East 450 518 17,100  Level FlightAware ADS-B
Fri 03:15:01 PM 47.4136 -120.8050 92° East 449 517 17,100  Level FlightAware ADS-B
Fri 03:15:22 PM 47.4169 -120.9601 92° East 448 516 17,100  Level FlightAware ADS-B
Fri 03:15:31 PM 47.4116 -120.7110 92° East 448 516 17,100  Level FlightAware ADS-B
Fri 03:16:18 PM 47.4169 -120.9601 92° East 450 518 17,100  Level FlightAware ADS-B
Fri 03:16:20 PM 47.4084 -120.5640 92° East 450 518 17,100  Level FlightAware ADS-B
Fri 03:16:50 PM 47.4062 -120.4690 92° East 450 518 17,100  Level FlightAware ADS-B
Fri 03:17:29 PM 47.4033 -120.3520 92° East 450 518 17,100  Level FlightAware ADS-B
Fri 03:18:23 PM 47.3991 -120.1860 92° East 449 517 17,100  Level FlightAware ADS-B
Fri 03:18:58 PM 47.3963 -120.0780 92° East 449 517 17,100 -69 Level FlightAware ADS-B
Fri 03:19:50 PM 47.3919 -119.9256 92° East 448 516 17,000 -53 Descending Seattle Center
Fri 03:20:51 PM 47.3872 -119.7581 92° East 410 472 17,000  Level Seattle Center
Fri 03:21:53 PM 47.3828 -119.5939 92° East 402 463 17,000  Level Seattle Center
Fri 03:22:54 PM 47.3783 -119.4325 92° East 397 457 17,000  Level Seattle Center
Fri 03:23:55 PM 47.3956 -119.2622 81° East 390 449 17,000  Level Seattle Center
Fri 03:24:56 PM 47.4122 -119.1039 81° East 390 449 17,000  Level Seattle Center
Fri 03:25:57 PM 47.4297 -118.9461 81° East 390 449 17,000  Level Seattle Center
Fri 03:26:59 PM 47.4469 -118.7878 81° East 390 449 17,000  Level Seattle Center
Fri 03:28:00 PM 47.4642 -118.6294 81° East 390 449 17,000  Level Seattle Center
Fri 03:29:01 PM 47.4817 -118.4622 81° East 389 448 17,000  Level Seattle Center
Fri 03:30:03 PM 47.4964 -118.3053 82° East 389 448 17,000  Level Seattle Center
Fri 03:31:04 PM 47.5111 -118.1694 81° East 334 384 17,000  Level Seattle Center
Fri 03:32:05 PM 47.5253 -118.0331 81° East 314 361 17,000  Level Seattle Center
Fri 03:33:07 PM 47.5381 -117.9039 82° East 318 366 17,000  Level Seattle Center
Fri 03:34:08 PM 47.5497 -117.7744 82° East 318 366 17,000 -49 Level Seattle Center
Fri 03:35:09 PM 47.4806 -117.6978 143° Southeast 330 380 16,900 -49 Descending Seattle Center
Fri 03:36:11 PM 47.4256 -117.7933 230° Southwest 323 372 16,900  Level Seattle Center
Fri 03:37:12 PM 47.3894 -117.9147 246° West 322 371 16,900  Level Seattle Center
Fri 03:38:13 PM 47.3531 -118.0364 246° West 323 372 16,900  Level Seattle Center
Fri 03:39:15 PM 47.3133 -118.1672 246° West 324 373 16,900  Level Seattle Center
Fri 03:40:16 PM 47.2753 -118.2886 245° Southwest 325 374 16,900  Level Seattle Center
Fri 03:41:17 PM 47.2375 -118.4114 246° West 327 376 16,900  Level Seattle Center
Fri 03:42:19 PM 47.2006 -118.5331 246° West 327 376 16,900  Level Seattle Center
Fri 03:43:20 PM 47.1564 -118.6583 243° Southwest 325 374 16,900  Level Seattle Center
Fri 03:44:21 PM 47.1028 -118.7692 235° Southwest 357 411 16,900  Level Seattle Center
Fri 03:45:23 PM 47.1539 -118.8747 305° West 329 379 16,900  Level Seattle Center
Fri 03:46:24 PM 47.2150 -118.9708 313° West 342 394 16,900  Level Seattle Center
Fri 03:47:25 PM 47.1447 -119.0675 223° Southwest 353 406 16,900 -146 Level Seattle Center
Fri 03:48:27 PM 47.0578 -119.1375 209° Southwest 357 411 16,600 -927 Descending Seattle Center
Fri 03:49:28 PM 46.9592 -119.1506 185° South 357 411 15,000 -1,525 Descending Seattle Center
Fri 03:50:29 PM 46.8717 -119.1883 196° South 338 389 13,500 -1,366 Descending Seattle Center
Fri 03:51:31 PM 46.9039 -119.2872 296° West 291 335 12,200 -1,561 Descending Seattle Center
Fri 03:52:32 PM 46.9808 -119.2900 359° North 275 316 10,300 -1,869 Descending Seattle Center
Fri 03:53:33 PM 47.0481 -119.2925 359° North 279 321 8,400 -1,869 Descending Seattle Center
Fri 03:55:00 PM 47.2000 -119.3167 341° North  Level FlightAware Approximate
Fri 04:02:00 PM 47.2086 -119.3191 341° North  Level Estimated
Fri 04:03:00 PM 47.2086 -119.3191 341° North  Level Estimated
Fri 04:04:00 PM 47.2086 -119.3191 341° North  Level Estimated
Fri 04:05:00 PM 47.2086 -119.3191 341° North  Level Estimated
Fri 04:06:00 PM 47.2086 -119.3191 341° North  Level Estimated
Fri 04:07:00 PM 47.2086 -119.3191 341° North  Level Estimated

Login

Don't have an account? Register now (free) for customized features, flight alerts, and more!